createdAt,value
2018-03-23T00:00:44.512Z,2.93
2018-03-23T00:03:17.811Z,2.90
2018-03-23T00:05:50.948Z,2.93
2018-03-23T00:08:24.788Z,2.95
2018-03-23T00:10:57.739Z,3.01
2018-03-23T00:13:31.195Z,2.95
2018-03-23T00:16:04.250Z,2.91
2018-03-23T00:18:37.495Z,2.88
2018-03-23T00:21:10.907Z,2.93
2018-03-23T00:23:43.847Z,3.03
2018-03-23T00:26:17.653Z,3.05
2018-03-23T00:28:51.944Z,3.06
2018-03-23T00:31:24.905Z,2.99
2018-03-23T00:33:58.259Z,3.03
2018-03-23T00:36:31.362Z,2.98
2018-03-23T00:39:04.947Z,3.01
2018-03-23T00:41:40.502Z,2.93
2018-03-23T00:44:14.372Z,2.89
2018-03-23T00:46:47.880Z,2.84
2018-03-23T00:49:21.016Z,2.92
2018-03-23T00:51:53.896Z,2.91
2018-03-23T00:54:27.394Z,2.90
2018-03-23T00:57:05.997Z,2.77
2018-03-23T00:59:39.680Z,2.85
2018-03-23T01:02:12.735Z,2.82
2018-03-23T01:04:46.367Z,2.75
2018-03-23T01:07:19.646Z,2.73
2018-03-23T01:09:52.629Z,2.72
2018-03-23T01:12:26.055Z,2.75
2018-03-23T01:14:59.259Z,2.79
2018-03-23T01:17:32.385Z,2.75
2018-03-23T01:22:37.048Z,2.66
2018-03-23T01:25:10.121Z,2.71
2018-03-23T01:27:43.707Z,2.71
2018-03-23T01:30:17.214Z,2.69
2018-03-23T01:32:52.959Z,2.67
2018-03-23T01:35:26.318Z,2.67
2018-03-23T01:37:59.647Z,2.72
2018-03-23T01:40:32.643Z,2.74
2018-03-23T01:43:06.396Z,2.81
2018-03-23T01:45:39.311Z,2.80
2018-03-23T01:48:12.939Z,2.71
2018-03-23T01:50:46.167Z,2.45
2018-03-23T01:53:28.140Z,2.49
2018-03-23T01:56:02.714Z,2.60
2018-03-23T01:58:35.860Z,2.69
2018-03-23T02:01:08.939Z,2.59
2018-03-23T02:03:41.983Z,2.68
2018-03-23T02:06:15.225Z,2.77
2018-03-23T02:08:48.314Z,2.74
2018-03-23T02:11:21.325Z,2.72
2018-03-23T02:13:55.617Z,2.71
2018-03-23T02:16:29.036Z,2.74
2018-03-23T02:19:03.892Z,2.72
2018-03-23T02:21:37.560Z,2.73
2018-03-23T02:24:11.076Z,2.81
2018-03-23T02:26:44.064Z,2.80
2018-03-23T02:29:16.997Z,2.83
2018-03-23T02:31:50.886Z,2.75
2018-03-23T02:34:23.764Z,2.80
2018-03-23T02:36:56.714Z,2.82
2018-03-23T02:39:29.980Z,2.94
2018-03-23T02:42:03.230Z,2.94
2018-03-23T02:44:36.187Z,2.92
2018-03-23T02:47:09.446Z,2.88
2018-03-23T02:49:42.750Z,2.84
2018-03-23T02:52:16.161Z,2.86
2018-03-23T02:54:49.453Z,2.86
2018-03-23T02:57:22.851Z,2.82
2018-03-23T02:59:55.975Z,2.86
2018-03-23T03:02:28.944Z,2.88
2018-03-23T03:05:01.932Z,2.88
2018-03-23T03:07:34.934Z,2.83
2018-03-23T03:10:08.091Z,2.78
2018-03-23T03:12:42.160Z,2.93
2018-03-23T03:15:15.487Z,2.79
2018-03-23T03:17:48.670Z,2.81
2018-03-23T03:20:22.045Z,2.83
2018-03-23T03:22:55.801Z,2.81
2018-03-23T03:25:28.703Z,2.80
2018-03-23T03:28:01.856Z,2.78
2018-03-23T03:30:37.651Z,2.82
2018-03-23T03:33:10.502Z,2.88
2018-03-23T03:35:43.426Z,2.83
2018-03-23T03:45:04.347Z,2.98
2018-03-23T03:47:37.612Z,2.96
2018-03-23T03:50:10.750Z,2.99
2018-03-23T03:52:44.376Z,3.01
2018-03-23T03:55:18.401Z,3.02
2018-03-23T03:57:52.229Z,3.13
2018-03-23T04:00:25.811Z,3.02
2018-03-23T04:02:59.757Z,2.98
2018-03-23T04:05:32.757Z,2.96
2018-03-23T04:08:05.824Z,2.97
2018-03-23T04:10:38.937Z,2.98
2018-03-23T04:13:11.984Z,2.93
2018-03-23T04:15:45.202Z,3.01
2018-03-23T04:18:18.348Z,3.00
2018-03-23T04:20:51.402Z,2.94
2018-03-23T04:23:24.537Z,2.94
2018-03-23T04:25:57.537Z,2.93
2018-03-23T04:28:31.015Z,2.92
2018-03-23T04:31:04.330Z,2.90
2018-03-23T04:33:37.708Z,2.95
2018-03-23T04:36:12.077Z,2.97
2018-03-23T04:38:46.252Z,2.93
2018-03-23T04:41:19.310Z,2.93
2018-03-23T04:43:52.907Z,2.95
2018-03-23T04:46:26.553Z,2.99
2018-03-23T04:48:59.694Z,2.98
2018-03-23T04:51:33.119Z,3.02
2018-03-23T04:54:06.828Z,3.10
2018-03-23T04:56:39.876Z,3.01
2018-03-23T04:59:13.680Z,3.00
2018-03-23T05:01:46.879Z,3.03
2018-03-23T05:04:20.037Z,3.01
2018-03-23T05:06:53.041Z,2.96
2018-03-23T05:09:26.669Z,3.00
2018-03-23T05:11:59.788Z,3.06
2018-03-23T05:14:33.011Z,3.09
2018-03-23T05:17:06.669Z,3.08
2018-03-23T05:19:39.920Z,3.01
2018-03-23T05:22:13.149Z,3.03
2018-03-23T05:24:47.348Z,3.03
2018-03-23T05:27:20.540Z,3.06
2018-03-23T05:29:53.864Z,3.11
2018-03-23T05:32:27.097Z,3.19
2018-03-23T05:35:00.140Z,3.17
2018-03-23T05:37:34.114Z,3.19
2018-03-23T05:40:07.680Z,3.13
2018-03-23T05:42:40.781Z,3.09
2018-03-23T05:45:14.152Z,3.13
2018-03-23T05:47:47.269Z,3.21
2018-03-23T05:50:20.325Z,3.23
2018-03-23T05:52:54.048Z,3.28
2018-03-23T05:55:28.032Z,3.33
2018-03-23T05:58:01.256Z,3.33
2018-03-23T06:00:35.121Z,3.42
2018-03-23T06:03:08.198Z,3.42
2018-03-23T06:05:41.362Z,3.50
2018-03-23T06:08:15.173Z,3.50
2018-03-23T06:10:48.181Z,3.58
2018-03-23T06:13:26.501Z,3.60
2018-03-23T06:15:59.837Z,3.67
2018-03-23T06:18:33.187Z,3.70
2018-03-23T06:21:09.509Z,3.75
2018-03-23T06:23:43.215Z,3.68
2018-03-23T06:26:16.616Z,3.74
2018-03-23T06:28:51.438Z,3.87
2018-03-23T06:31:26.574Z,3.93
2018-03-23T06:34:02.234Z,3.76
2018-03-23T06:36:42.052Z,3.92
2018-03-23T06:39:20.500Z,4.04
2018-03-23T06:41:54.701Z,3.97
2018-03-23T06:44:31.850Z,3.98
2018-03-23T06:47:07.591Z,4.04
2018-03-23T06:49:42.513Z,4.06
2018-03-23T06:52:18.008Z,3.94
2018-03-23T06:55:04.139Z,3.91
2018-03-23T06:57:43.433Z,3.26
2018-03-23T07:00:23.774Z,3.51
2018-03-23T07:02:57.355Z,3.96
2018-03-23T07:05:32.623Z,4.01
2018-03-23T07:08:08.206Z,3.94
2018-03-23T07:10:41.978Z,4.11
2018-03-23T07:13:15.082Z,4.09
2018-03-23T07:15:50.161Z,4.05
2018-03-23T07:18:35.158Z,4.03
2018-03-23T07:21:08.703Z,4.06
2018-03-23T07:23:42.738Z,4.12
2018-03-23T07:26:16.845Z,4.17
2018-03-23T07:28:49.982Z,4.23
2018-03-23T07:31:23.330Z,4.28
2018-03-23T07:33:56.478Z,4.39
2018-03-23T07:36:29.922Z,4.51
2018-03-23T07:39:03.459Z,4.48
2018-03-23T07:41:37.708Z,4.40
2018-03-23T07:44:11.376Z,4.42
2018-03-23T07:46:47.293Z,4.45
2018-03-23T07:49:21.976Z,4.57
2018-03-23T07:51:55.486Z,4.69
2018-03-23T07:54:30.650Z,4.78
2018-03-23T07:57:04.812Z,4.84
2018-03-23T07:59:41.590Z,4.77
2018-03-23T08:02:17.063Z,4.82
2018-03-23T08:04:50.878Z,4.87
2018-03-23T08:07:24.361Z,4.79
2018-03-23T08:09:58.057Z,4.84
2018-03-23T08:12:31.388Z,4.83
2018-03-23T08:15:06.638Z,4.81
2018-03-23T08:17:41.836Z,4.88
2018-03-23T08:20:15.214Z,4.94
2018-03-23T08:22:48.365Z,5.04
2018-03-23T08:25:21.480Z,5.01
2018-03-23T08:27:55.113Z,5.01
2018-03-23T08:30:28.887Z,4.96
2018-03-23T08:33:02.284Z,5.07
2018-03-23T08:35:36.203Z,5.14
2018-03-23T08:38:09.853Z,5.14
2018-03-23T08:40:47.313Z,5.10
2018-03-23T08:43:20.576Z,5.26
2018-03-23T08:45:54.275Z,5.25
2018-03-23T08:48:27.993Z,5.49
2018-03-23T08:51:08.620Z,5.61
2018-03-23T08:53:43.480Z,5.91
2018-03-23T08:56:19.262Z,6.19
2018-03-23T08:58:53.001Z,6.24
2018-03-23T09:01:26.519Z,6.47
2018-03-23T09:03:59.956Z,6.37
2018-03-23T09:06:33.135Z,6.59
2018-03-23T09:09:06.871Z,6.59
2018-03-23T09:11:42.428Z,6.60
2018-03-23T09:14:16.433Z,6.53
2018-03-23T09:16:50.005Z,6.61
2018-03-23T09:19:24.379Z,6.46
2018-03-23T09:21:59.096Z,6.22
2018-03-23T09:24:32.753Z,5.84
2018-03-23T09:27:08.154Z,5.63
2018-03-23T09:29:47.928Z,5.84
2018-03-23T09:32:24.338Z,6.05
2018-03-23T09:34:58.362Z,6.22
2018-03-23T09:37:33.632Z,6.22
2018-03-23T09:40:07.795Z,6.28
2018-03-23T09:42:49.126Z,6.78
2018-03-23T09:45:29.672Z,7.09
2018-03-23T09:48:04.116Z,7.00
2018-03-23T09:50:37.907Z,6.81
2018-03-23T09:53:10.986Z,7.28
2018-03-23T09:55:44.936Z,7.46
2018-03-23T09:58:18.711Z,7.38
2018-03-23T10:00:53.363Z,7.34
2018-03-23T10:03:28.185Z,6.93
2018-03-23T10:06:02.722Z,6.58
2018-03-23T10:08:36.632Z,7.43
2018-03-23T10:11:10.216Z,7.82
2018-03-23T10:13:44.083Z,7.59
2018-03-23T10:16:19.669Z,8.06
2018-03-23T10:18:54.344Z,8.28
2018-03-23T10:21:28.553Z,7.93
2018-03-23T10:24:02.747Z,8.21
2018-03-23T10:26:36.241Z,8.10
2018-03-23T10:29:11.166Z,8.38
2018-03-23T10:31:44.560Z,8.45
2018-03-23T10:34:18.103Z,8.48
2018-03-23T10:36:51.496Z,8.65
2018-03-23T10:39:25.323Z,8.07
2018-03-23T10:41:58.661Z,8.26
2018-03-23T10:44:34.508Z,7.85
2018-03-23T10:47:09.787Z,8.01
2018-03-23T10:49:43.594Z,8.27
2018-03-23T10:52:17.963Z,7.50
2018-03-23T10:54:52.806Z,7.80
2018-03-23T10:57:26.270Z,8.39
2018-03-23T10:59:59.538Z,8.47
2018-03-23T11:02:41.246Z,8.83
2018-03-23T11:05:18.505Z,8.23
2018-03-23T11:07:54.982Z,8.49
2018-03-23T11:10:37.102Z,9.06
2018-03-23T11:13:14.163Z,9.32
2018-03-23T11:15:48.292Z,9.32
2018-03-23T11:18:24.217Z,9.68
2018-03-23T11:21:00.389Z,9.64
2018-03-23T11:23:36.751Z,9.45
2018-03-23T11:28:58.197Z,9.72
2018-03-23T11:31:36.341Z,9.60
2018-03-23T11:34:12.153Z,9.64
2018-03-23T11:41:31.754Z,8.83
2018-03-23T11:47:26.888Z,9.44
2018-03-23T11:53:09.266Z,10.03
2018-03-23T11:59:25.608Z,10.15
2018-03-23T12:02:11.190Z,9.92
2018-03-23T12:05:01.988Z,9.62
2018-03-23T12:07:49.539Z,9.93
2018-03-23T12:10:28.873Z,9.56
2018-03-23T12:13:14.707Z,8.46
2018-03-23T12:18:54.652Z,8.21
2018-03-23T12:21:38.564Z,8.46
2018-03-23T12:24:24.740Z,8.67
2018-03-23T12:27:04.363Z,8.57
2018-03-23T12:29:50.979Z,8.30
2018-03-23T12:32:30.906Z,8.21
2018-03-23T12:35:10.442Z,7.97
2018-03-23T12:37:46.660Z,8.19
2018-03-23T12:40:28.551Z,8.72
2018-03-23T12:43:07.850Z,8.85
2018-03-23T12:48:12.629Z,8.96
2018-03-23T12:50:49.498Z,8.68
2018-03-23T12:53:26.572Z,8.66
2018-03-23T12:56:00.742Z,8.52
2018-03-23T12:58:38.516Z,8.77
2018-03-23T13:01:14.140Z,9.45
2018-03-23T17:26:11.422Z,10.51
2018-03-23T17:29:01.165Z,8.38
2018-03-23T17:31:34.765Z,7.15
2018-03-23T17:34:19.004Z,6.61
2018-03-23T17:37:00.086Z,6.13
2018-03-23T17:42:06.187Z,5.47
2018-03-23T17:44:41.515Z,5.24
2018-03-23T17:47:14.929Z,5.09
2018-03-23T17:49:50.088Z,4.91
2018-03-23T17:52:24.856Z,4.90
2018-03-23T17:55:01.754Z,4.91
2018-03-23T17:57:42.404Z,4.96
2018-03-23T18:00:15.784Z,4.81
2018-03-23T18:02:49.388Z,4.64
2018-03-23T18:05:24.045Z,4.47
2018-03-23T18:10:25.609Z,4.37
2018-03-23T18:12:58.644Z,4.36
2018-03-23T18:15:32.883Z,4.48
2018-03-23T18:18:06.964Z,4.49
2018-03-23T18:20:40.739Z,4.52
2018-03-23T18:23:14.590Z,4.48
2018-03-23T18:25:48.995Z,4.53
2018-03-23T18:28:22.723Z,4.52
2018-03-23T18:30:56.479Z,4.62
2018-03-23T18:33:31.255Z,4.60
2018-03-23T18:36:05.425Z,4.65
2018-03-23T18:38:39.805Z,4.69
2018-03-23T18:41:13.114Z,4.75
2018-03-23T18:43:46.795Z,4.79
2018-03-23T18:46:20.450Z,4.87
2018-03-23T18:48:54.193Z,5.00
2018-03-23T18:51:28.162Z,5.14
2018-03-23T18:54:01.614Z,5.07
2018-03-23T18:56:34.918Z,5.03
2018-03-23T18:59:08.960Z,5.11
2018-03-23T19:01:44.050Z,4.95
2018-03-23T19:04:17.384Z,5.00
2018-03-23T19:06:50.685Z,4.97
2018-03-23T19:09:23.884Z,5.04
2018-03-23T19:11:57.138Z,5.10
2018-03-23T19:14:31.328Z,5.02
2018-03-23T19:17:04.681Z,5.03
2018-03-23T19:19:38.226Z,5.05
2018-03-23T19:22:12.455Z,4.99
2018-03-23T19:24:47.098Z,4.99
2018-03-23T19:27:21.727Z,5.02
2018-03-23T19:29:55.351Z,5.06
2018-03-23T19:32:29.034Z,5.02
2018-03-23T19:35:03.077Z,4.99
2018-03-23T19:37:36.638Z,5.08
2018-03-23T19:40:10.429Z,5.12
2018-03-23T19:42:43.570Z,5.16
2018-03-23T19:45:17.109Z,5.23
2018-03-23T19:47:51.115Z,5.10
2018-03-23T19:50:24.262Z,5.07
2018-03-23T19:52:57.506Z,5.03
2018-03-23T19:55:30.787Z,5.00
2018-03-23T19:58:03.898Z,4.94
2018-03-23T20:00:37.153Z,5.05
2018-03-23T20:03:11.666Z,5.08
2018-03-23T20:05:45.469Z,5.14
2018-03-23T20:08:19.166Z,5.09
2018-03-23T20:10:53.046Z,5.08
2018-03-23T20:13:26.919Z,4.92
2018-03-23T20:16:00.167Z,4.83
2018-03-23T20:18:35.228Z,4.86
2018-03-23T20:21:11.516Z,4.94
2018-03-23T20:23:44.822Z,4.90
2018-03-23T20:26:18.028Z,5.03
2018-03-23T20:28:51.466Z,4.97
2018-03-23T20:31:28.933Z,4.95
2018-03-23T20:34:02.668Z,4.87
2018-03-23T20:36:36.717Z,4.80
2018-03-23T20:39:09.909Z,4.72
2018-03-23T20:41:44.168Z,4.64
2018-03-23T20:44:19.394Z,4.62
2018-03-23T20:46:52.796Z,4.75
2018-03-23T20:49:26.540Z,4.81
2018-03-23T20:52:03.941Z,4.72
2018-03-23T20:54:37.296Z,4.72
2018-03-23T20:57:10.551Z,4.68
2018-03-23T20:59:44.484Z,4.59
2018-03-23T21:02:18.487Z,4.56
2018-03-23T21:04:51.463Z,4.57
2018-03-23T21:09:53.543Z,4.46
2018-03-23T21:12:34.122Z,4.30
2018-03-23T21:15:07.442Z,4.21
2018-03-23T21:17:41.387Z,4.15
2018-03-23T21:20:15.001Z,4.08
2018-03-23T21:22:48.461Z,4.02
2018-03-23T21:25:22.099Z,4.00
2018-03-23T21:27:55.134Z,3.95
2018-03-23T21:30:28.607Z,3.93
2018-03-23T21:33:02.533Z,3.81
2018-03-23T21:35:35.940Z,3.79
2018-03-23T21:38:09.969Z,3.76
2018-03-23T21:40:43.465Z,3.77
2018-03-23T21:43:17.081Z,3.73
2018-03-23T21:45:50.225Z,3.64
2018-03-23T21:48:23.681Z,3.57
2018-03-23T21:50:56.898Z,3.56
2018-03-23T21:53:30.057Z,3.52
2018-03-23T21:56:08.253Z,3.56
2018-03-23T21:58:42.702Z,3.50
2018-03-23T22:01:15.939Z,3.45
2018-03-23T22:03:49.416Z,3.48
2018-03-23T22:06:22.569Z,3.47
2018-03-23T22:08:56.036Z,3.36
2018-03-23T22:11:30.186Z,3.35
2018-03-23T22:14:04.712Z,3.30
2018-03-23T22:16:37.911Z,3.26
2018-03-23T22:19:11.130Z,3.28
2018-03-23T22:21:44.165Z,3.21
2018-03-23T22:24:17.185Z,3.21
2018-03-23T22:26:50.542Z,3.21
2018-03-23T22:29:24.028Z,3.15
2018-03-23T22:31:57.995Z,3.15
2018-03-23T22:34:31.942Z,3.23
2018-03-23T22:37:05.382Z,3.24
2018-03-23T22:39:39.719Z,3.17
2018-03-23T22:42:17.570Z,3.09
2018-03-23T22:44:50.761Z,3.05
2018-03-23T22:47:24.509Z,2.95
2018-03-23T22:49:57.776Z,2.90
2018-03-23T22:52:30.846Z,2.80
2018-03-23T22:55:04.475Z,2.79
2018-03-23T22:57:37.953Z,2.80
2018-03-23T23:00:11.003Z,2.74
2018-03-23T23:02:44.774Z,2.70
2018-03-23T23:05:18.378Z,2.66
2018-03-23T23:07:51.461Z,2.65
2018-03-23T23:10:24.869Z,2.68
2018-03-23T23:13:02.148Z,2.67
2018-03-23T23:15:35.574Z,2.66
2018-03-23T23:18:09.855Z,2.58
2018-03-23T23:20:45.031Z,2.44
2018-03-23T23:23:18.276Z,2.33
2018-03-23T23:25:51.890Z,2.38
2018-03-23T23:28:25.186Z,2.25
2018-03-23T23:30:59.019Z,2.28
2018-03-23T23:33:32.791Z,2.26
2018-03-23T23:36:05.901Z,2.25
2018-03-23T23:38:39.017Z,2.24
2018-03-23T23:41:12.711Z,2.21
2018-03-23T23:43:49.478Z,2.18
2018-03-23T23:46:23.608Z,2.16
2018-03-23T23:48:57.384Z,2.26
2018-03-23T23:51:30.558Z,2.29
2018-03-23T23:54:04.028Z,2.34
2018-03-23T23:56:38.210Z,2.32
2018-03-23T23:59:12.785Z,2.28
